Time;durP1;ratioP1;P1;durP2;ratioP2;P2;SDS_P1;SDS_P2;PMS_P1;PMS_P2;Temp;Humidity;BMP_temperature;BMP_pressure;BME280_temperature;BME280_humidity;BME280_pressure;Samples;Min_cycle;Max_cycle;Signal;HPM_P1;HPM_P2
2021/12/31 00:01:58;;;;;;;8.30;3.43;;;12.70;99.90;;;;;;5061820;27;20070;-88
2021/12/31 00:04:24;;;;;;;11.23;3.00;;;12.70;99.90;;;;;;5068641;27;20076;-88
2021/12/31 00:06:50;;;;;;;12.03;3.60;;;12.70;99.90;;;;;;5096101;27;20585;-88
2021/12/31 00:09:16;;;;;;;11.50;3.20;;;12.70;99.90;;;;;;5094980;27;20042;-87
2021/12/31 00:11:42;;;;;;;12.00;3.47;;;12.70;99.90;;;;;;5109607;28;20153;-87
2021/12/31 00:14:07;;;;;;;10.67;3.17;;;12.70;99.90;;;;;;5078929;27;20134;-88
2021/12/31 00:16:33;;;;;;;7.10;3.00;;;12.70;99.90;;;;;;5064605;28;20044;-88
2021/12/31 00:18:59;;;;;;;13.93;3.00;;;12.70;99.90;;;;;;5112169;27;20520;-87
2021/12/31 00:21:25;;;;;;;11.47;3.37;;;12.70;99.90;;;;;;5099906;27;20043;-88
2021/12/31 00:23:51;;;;;;;9.90;3.10;;;12.70;99.90;;;;;;5082647;27;20058;-89
2021/12/31 00:26:16;;;;;;;9.23;2.97;;;12.70;99.90;;;;;;5101098;27;20046;-88
2021/12/31 00:28:43;;;;;;;9.47;3.20;;;12.70;99.90;;;;;;5065438;27;20491;-87
2021/12/31 00:31:09;;;;;;;7.30;2.80;;;12.70;99.90;;;;;;5072433;28;20073;-88
2021/12/31 00:33:35;;;;;;;11.10;2.97;;;12.70;99.90;;;;;;5065831;27;20039;-87
2021/12/31 00:36:01;;;;;;;9.43;2.67;;;12.70;99.90;;;;;;5055983;27;20074;-88
2021/12/31 00:38:26;;;;;;;8.97;3.13;;;12.70;99.90;;;;;;5079994;28;20962;-87
2021/12/31 00:40:52;;;;;;;10.83;2.83;;;12.70;99.90;;;;;;5057378;28;20082;-88
2021/12/31 00:43:18;;;;;;;11.93;3.37;;;12.70;99.90;;;;;;5079856;27;20093;-86
2021/12/31 00:45:43;;;;;;;11.40;3.60;;;12.70;99.90;;;;;;5068665;28;20046;-86
2021/12/31 00:48:11;;;;;;;11.80;3.40;;;12.70;99.90;;;;;;5059359;27;20050;-87
2021/12/31 00:50:37;;;;;;;7.53;3.10;;;12.70;99.90;;;;;;5096793;27;20050;-87
2021/12/31 00:53:04;;;;;;;11.33;3.10;;;12.70;99.90;;;;;;5071207;27;20051;-88
2021/12/31 00:55:30;;;;;;;10.30;3.77;;;12.80;99.90;;;;;;5091548;27;20502;-87
2021/12/31 00:57:56;;;;;;;12.20;3.30;;;12.70;99.90;;;;;;5092639;28;20038;-87
2021/12/31 01:00:22;;;;;;;12.67;3.80;;;12.70;99.90;;;;;;5061399;27;20055;-86
2021/12/31 01:02:48;;;;;;;10.80;3.60;;;12.70;99.90;;;;;;5073176;28;20662;-87
2021/12/31 01:05:15;;;;;;;14.57;3.43;;;12.70;99.90;;;;;;5093693;28;20367;-87
2021/12/31 01:07:41;;;;;;;8.97;3.03;;;12.80;99.90;;;;;;5073767;28;20039;-86
2021/12/31 01:10:13;;;;;;;16.57;3.60;;;12.80;99.90;;;;;;5074986;28;20055;-87
2021/12/31 01:12:40;;;;;;;8.50;2.77;;;12.80;99.90;;;;;;5102180;27;20035;-86
2021/12/31 01:15:10;;;;;;;14.23;3.97;;;12.80;99.90;;;;;;5080289;28;20039;-87
2021/12/31 01:20:04;;;;;;;12.30;3.27;;;12.80;99.90;;;;;;5082357;28;20040;-87
2021/12/31 01:22:32;;;;;;;11.03;3.40;;;12.80;99.90;;;;;;5071247;28;20047;-86
2021/12/31 01:24:58;;;;;;;9.97;3.47;;;12.80;99.90;;;;;;5060324;28;20038;-88
2021/12/31 01:27:24;;;;;;;15.43;4.90;;;12.80;99.90;;;;;;5100532;28;20107;-88
2021/12/31 01:29:50;;;;;;;9.97;3.60;;;12.80;99.90;;;;;;5099650;28;20047;-87
2021/12/31 01:32:16;;;;;;;14.17;4.30;;;12.80;99.90;;;;;;5084225;28;20633;-87
2021/12/31 01:34:42;;;;;;;20.53;4.80;;;12.80;99.90;;;;;;5077333;28;20063;-87
2021/12/31 01:37:10;;;;;;;15.00;4.27;;;12.80;99.90;;;;;;5072091;27;20073;-87
2021/12/31 01:39:36;;;;;;;13.83;4.27;;;12.90;99.90;;;;;;5117681;27;20055;-87
2021/12/31 01:42:06;;;;;;;11.53;3.70;;;12.90;99.90;;;;;;5112150;28;20103;-87
2021/12/31 01:44:38;;;;;;;11.07;4.27;;;12.90;99.90;;;;;;5093256;27;20044;-87
2021/12/31 01:47:12;;;;;;;16.87;4.53;;;12.90;99.90;;;;;;5105760;27;20080;-87
2021/12/31 01:49:41;;;;;;;13.03;3.67;;;12.90;99.90;;;;;;5110882;27;20461;-87
2021/12/31 01:52:09;;;;;;;10.97;3.80;;;12.90;99.90;;;;;;5103774;27;20127;-87
2021/12/31 01:54:36;;;;;;;15.00;4.23;;;12.80;99.90;;;;;;5103133;27;20526;-87
2021/12/31 01:57:07;;;;;;;13.90;4.03;;;12.80;99.90;;;;;;5116175;28;20130;-88
2021/12/31 01:59:36;;;;;;;14.95;4.25;;;12.80;99.90;;;;;;5093893;27;20080;-88
2021/12/31 02:02:05;;;;;;;12.70;3.97;;;12.80;99.90;;;;;;5110350;27;20043;-88
2021/12/31 02:04:31;;;;;;;12.73;3.83;;;12.80;99.90;;;;;;5093891;28;20043;-88
2021/12/31 02:06:58;;;;;;;12.17;4.10;;;12.80;99.90;;;;;;5110234;27;20127;-88
2021/12/31 02:09:24;;;;;;;10.50;3.40;;;12.80;99.90;;;;;;5096187;27;20055;-87
2021/12/31 02:11:53;;;;;;;13.63;3.90;;;12.80;99.90;;;;;;5097056;27;20031;-88
2021/12/31 02:14:20;;;;;;;9.63;3.30;;;12.80;99.90;;;;;;5102947;27;20054;-88
2021/12/31 02:16:46;;;;;;;15.67;3.40;;;12.80;99.90;;;;;;5070115;27;20043;-88
2021/12/31 02:19:14;;;;;;;9.27;3.30;;;12.80;99.90;;;;;;5092803;28;20040;-87
2021/12/31 02:21:46;;;;;;;9.20;3.20;;;12.80;99.90;;;;;;5074051;27;20035;-88
2021/12/31 02:24:13;;;;;;;10.53;3.67;;;12.90;99.90;;;;;;5093499;27;20058;-88
2021/12/31 02:26:40;;;;;;;6.27;3.53;;;12.90;99.90;;;;;;5078098;27;20137;-88
2021/12/31 02:29:06;;;;;;;10.87;3.50;;;12.90;99.90;;;;;;5082450;28;20069;-88
2021/12/31 02:31:32;;;;;;;14.33;3.77;;;12.90;99.90;;;;;;5074638;27;20043;-89
2021/12/31 02:33:58;;;;;;;9.27;3.60;;;12.90;99.90;;;;;;5069141;27;20039;-88
2021/12/31 02:36:24;;;;;;;15.63;3.70;;;13.00;99.90;;;;;;5093464;28;20040;-88
2021/12/31 02:38:50;;;;;;;10.80;3.80;;;13.00;99.90;;;;;;5081221;27;20031;-88
2021/12/31 02:41:16;;;;;;;9.17;3.80;;;13.00;99.90;;;;;;5069103;27;20049;-88
2021/12/31 02:43:42;;;;;;;12.60;3.90;;;13.00;99.90;;;;;;5081200;27;20035;-88
2021/12/31 02:46:07;;;;;;;9.37;3.60;;;13.00;99.90;;;;;;5102399;27;20048;-88
2021/12/31 02:48:33;;;;;;;10.77;4.07;;;13.00;99.90;;;;;;5073506;27;20047;-88
2021/12/31 02:51:00;;;;;;;8.20;3.93;;;13.00;99.90;;;;;;5069461;27;20043;-88
2021/12/31 02:53:35;;;;;;;10.97;4.33;;;13.00;99.90;;;;;;5115698;27;20072;-87
2021/12/31 02:56:07;;;;;;;8.00;4.03;;;13.10;99.90;;;;;;5121370;27;20146;-88
2021/12/31 02:58:34;;;;;;;10.05;4.32;;;13.00;99.90;;;;;;5090022;27;20051;-89
2021/12/31 03:01:00;;;;;;;8.70;4.70;;;13.00;99.90;;;;;;5068500;27;20057;-89
2021/12/31 03:03:27;;;;;;;10.83;4.57;;;13.00;99.90;;;;;;5083405;28;20044;-89
2021/12/31 03:05:55;;;;;;;11.03;4.83;;;13.00;99.90;;;;;;5086956;27;20043;-87
2021/12/31 03:08:23;;;;;;;14.37;5.47;;;13.00;99.90;;;;;;5099273;27;20154;-89
2021/12/31 03:10:50;;;;;;;11.83;5.20;;;13.00;99.90;;;;;;5089351;27;20049;-89
2021/12/31 03:13:16;;;;;;;8.30;5.20;;;13.00;99.90;;;;;;5086085;28;20097;-87
2021/12/31 03:15:43;;;;;;;14.27;5.70;;;13.00;99.90;;;;;;5068754;27;20051;-88
2021/12/31 03:18:10;;;;;;;8.47;5.47;;;13.00;99.90;;;;;;5075546;27;20776;-87
2021/12/31 03:20:40;;;;;;;11.67;6.03;;;12.90;99.90;;;;;;5102804;27;20047;-88
2021/12/31 03:23:07;;;;;;;14.23;6.00;;;13.00;99.90;;;;;;5082413;28;20048;-89
2021/12/31 03:25:33;;;;;;;9.97;5.37;;;13.00;99.90;;;;;;5077897;27;20043;-88
2021/12/31 03:27:59;;;;;;;9.75;5.80;;;13.00;99.90;;;;;;5066104;28;20048;-89
2021/12/31 03:30:26;;;;;;;8.33;6.53;;;13.00;99.90;;;;;;5080121;28;20054;-88
2021/12/31 03:32:52;;;;;;;7.93;6.10;;;13.00;99.90;;;;;;5090100;27;20112;-89
2021/12/31 03:35:18;;;;;;;9.37;6.17;;;13.00;99.90;;;;;;5082919;28;20058;-88
2021/12/31 03:37:44;;;;;;;11.13;6.47;;;13.10;99.90;;;;;;5069394;27;20043;-88
2021/12/31 03:40:11;;;;;;;9.40;6.27;;;13.10;99.90;;;;;;5077488;28;20050;-88
2021/12/31 03:42:36;;;;;;;8.20;6.20;;;13.10;99.90;;;;;;5097726;27;20259;-88
2021/12/31 03:45:03;;;;;;;6.63;5.70;;;13.10;99.90;;;;;;5090242;27;20059;-88
2021/12/31 03:47:29;;;;;;;9.73;6.00;;;13.10;99.90;;;;;;5088128;27;20115;-88
2021/12/31 03:49:55;;;;;;;9.50;6.10;;;13.10;99.90;;;;;;5117850;27;20148;-88
2021/12/31 03:52:20;;;;;;;10.30;6.10;;;13.20;99.90;;;;;;5068118;27;20082;-86
2021/12/31 03:54:46;;;;;;;9.07;6.60;;;13.20;99.90;;;;;;5066632;27;20047;-88
2021/12/31 03:57:12;;;;;;;9.23;5.77;;;13.20;99.90;;;;;;5076970;27;20055;-87
2021/12/31 03:59:37;;;;;;;13.97;5.13;;;13.30;99.90;;;;;;5104750;27;20051;-87
2021/12/31 04:02:03;;;;;;;10.63;5.57;;;13.20;99.90;;;;;;5096013;27;20545;-87
2021/12/31 04:04:30;;;;;;;9.37;4.83;;;13.20;99.90;;;;;;5070558;28;20073;-86
2021/12/31 04:06:56;;;;;;;8.00;4.23;;;13.20;99.90;;;;;;5065180;28;20152;-88
2021/12/31 04:09:21;;;;;;;10.03;5.10;;;13.30;99.90;;;;;;5068789;27;20052;-90
2021/12/31 04:11:47;;;;;;;9.57;4.87;;;13.20;99.90;;;;;;5098334;27;20039;-89
2021/12/31 04:14:13;;;;;;;5.80;4.87;;;13.30;99.90;;;;;;5095670;27;20063;-89
2021/12/31 04:16:39;;;;;;;6.47;4.57;;;13.20;99.90;;;;;;5076767;28;20054;-87
2021/12/31 04:19:05;;;;;;;8.77;4.40;;;13.20;99.90;;;;;;5080703;28;20044;-87
2021/12/31 04:21:31;;;;;;;9.07;4.80;;;13.20;99.90;;;;;;5078551;27;20047;-86
2021/12/31 04:24:13;;;;;;;10.50;5.80;;;13.20;99.90;;;;;;5067576;27;20159;-88
2021/12/31 04:26:40;;;;;;;9.33;4.87;;;13.20;99.90;;;;;;5095028;28;20056;-88
2021/12/31 04:29:05;;;;;;;9.73;5.27;;;13.20;99.90;;;;;;5089512;28;20050;-87
2021/12/31 04:31:31;;;;;;;8.67;5.47;;;13.10;99.90;;;;;;5081531;28;20095;-89
2021/12/31 04:33:59;;;;;;;11.10;5.73;;;13.20;99.90;;;;;;5088330;28;20546;-87
2021/12/31 04:36:24;;;;;;;7.47;5.87;;;13.20;99.90;;;;;;5071669;28;20081;-87
2021/12/31 04:38:50;;;;;;;10.20;5.63;;;13.20;99.90;;;;;;5070214;28;20040;-86
2021/12/31 04:41:16;;;;;;;8.00;5.77;;;13.20;99.90;;;;;;5057448;28;20072;-88
2021/12/31 04:43:42;;;;;;;10.17;6.30;;;13.20;99.90;;;;;;5063342;28;20077;-88
2021/12/31 04:46:07;;;;;;;7.60;6.33;;;13.20;99.90;;;;;;5079375;28;20102;-87
2021/12/31 04:48:33;;;;;;;11.00;6.43;;;13.20;99.90;;;;;;5113363;28;20083;-88
2021/12/31 04:50:59;;;;;;;7.97;5.90;;;13.10;99.90;;;;;;5052422;28;20075;-87
2021/12/31 04:53:24;;;;;;;7.20;6.03;;;13.20;99.90;;;;;;5109523;28;20035;-88
2021/12/31 04:55:50;;;;;;;9.10;6.43;;;13.20;99.90;;;;;;5098199;28;20075;-88
2021/12/31 04:58:16;;;;;;;12.77;6.17;;;13.10;99.90;;;;;;5063494;28;20054;-87
2021/12/31 05:00:42;;;;;;;7.90;6.27;;;13.10;99.90;;;;;;5062454;28;20040;-89
2021/12/31 05:03:10;;;;;;;7.40;6.30;;;13.10;99.90;;;;;;5061843;28;20036;-89
2021/12/31 05:05:36;;;;;;;8.33;5.80;;;13.10;99.90;;;;;;5114311;28;20074;-87
2021/12/31 05:08:03;;;;;;;10.77;6.53;;;13.10;99.90;;;;;;5085976;28;20072;-87
2021/12/31 05:10:33;;;;;;;10.80;6.10;;;13.10;99.90;;;;;;5094265;28;20080;-88
2021/12/31 05:13:00;;;;;;;12.67;6.63;;;13.10;99.90;;;;;;5092616;28;20055;-87
2021/12/31 05:15:28;;;;;;;7.63;5.47;;;13.10;99.90;;;;;;5071383;28;20058;-87
2021/12/31 05:17:57;;;;;;;12.13;5.90;;;13.10;99.90;;;;;;5081554;28;20934;-87
2021/12/31 05:20:23;;;;;;;8.27;5.27;;;13.10;99.90;;;;;;5087344;28;20047;-88
2021/12/31 05:22:49;;;;;;;7.13;5.43;;;13.10;99.90;;;;;;5066057;28;20048;-88
2021/12/31 05:25:16;;;;;;;8.10;5.57;;;13.10;99.90;;;;;;5069885;28;20050;-87
2021/12/31 05:27:42;;;;;;;7.77;4.40;;;13.10;99.90;;;;;;5102283;28;20048;-87
2021/12/31 05:30:09;;;;;;;6.93;5.03;;;13.10;99.90;;;;;;5083153;28;20051;-86
2021/12/31 05:32:34;;;;;;;6.43;4.53;;;13.10;99.90;;;;;;5067629;28;20055;-88
2021/12/31 05:35:00;;;;;;;8.20;4.60;;;13.10;99.90;;;;;;5062774;28;20047;-87
2021/12/31 05:37:26;;;;;;;8.10;4.13;;;13.10;99.90;;;;;;5071229;28;20051;-87
2021/12/31 05:39:52;;;;;;;9.17;4.40;;;13.20;99.90;;;;;;5065130;28;20050;-87
2021/12/31 05:42:17;;;;;;;6.43;4.30;;;13.20;99.90;;;;;;5063146;28;20062;-87
2021/12/31 05:44:44;;;;;;;6.80;3.77;;;13.20;99.90;;;;;;5066723;28;20044;-87
2021/12/31 05:47:10;;;;;;;9.00;4.40;;;13.20;99.90;;;;;;5067442;28;20054;-87
2021/12/31 05:49:36;;;;;;;6.40;3.60;;;13.20;99.90;;;;;;5110423;28;20047;-88
2021/12/31 05:52:03;;;;;;;5.93;3.50;;;13.20;99.90;;;;;;5117398;28;20035;-87
2021/12/31 05:54:28;;;;;;;8.50;3.93;;;13.20;99.90;;;;;;5089520;28;20067;-88
2021/12/31 05:56:54;;;;;;;6.13;3.63;;;13.20;99.90;;;;;;5100559;28;20050;-87
2021/12/31 05:59:20;;;;;;;4.77;3.30;;;13.10;99.90;;;;;;5082069;28;20050;-87
2021/12/31 06:01:46;;;;;;;5.93;3.87;;;13.10;99.90;;;;;;5081220;28;20047;-87
2021/12/31 06:04:12;;;;;;;8.23;3.50;;;13.10;99.90;;;;;;5067187;28;20051;-86
2021/12/31 06:06:37;;;;;;;4.80;3.60;;;13.10;99.90;;;;;;5079875;28;20099;-87
2021/12/31 06:09:06;;;;;;;7.87;3.57;;;13.10;99.90;;;;;;5065395;28;20891;-88
2021/12/31 06:11:32;;;;;;;4.27;3.20;;;13.20;99.90;;;;;;5070458;28;20043;-88
2021/12/31 06:14:03;;;;;;;7.67;2.83;;;13.20;99.90;;;;;;5088661;28;20071;-89
2021/12/31 06:16:38;;;;;;;4.35;3.35;;;13.10;99.90;;;;;;5069455;28;20088;-88
2021/12/31 06:19:07;;;;;;;6.30;2.87;;;13.10;99.90;;;;;;5090372;28;20063;-87
2021/12/31 06:21:39;;;;;;;6.77;2.93;;;13.00;99.90;;;;;;5071436;28;20068;-87
2021/12/31 06:24:05;;;;;;;4.70;2.90;;;13.00;99.90;;;;;;5092034;27;20039;-88
2021/12/31 06:26:32;;;;;;;4.63;2.67;;;13.00;99.90;;;;;;5104735;27;20076;-89
2021/12/31 06:28:58;;;;;;;5.20;2.63;;;13.00;99.90;;;;;;5083951;27;20062;-87
2021/12/31 06:31:24;;;;;;;5.53;2.57;;;13.00;99.90;;;;;;5118743;27;20125;-89
2021/12/31 06:33:51;;;;;;;4.23;2.70;;;13.00;99.90;;;;;;5075672;27;20090;-83
2021/12/31 06:36:17;;;;;;;4.77;3.00;;;13.00;99.90;;;;;;5083368;27;20085;-90
2021/12/31 06:38:43;;;;;;;5.37;2.97;;;13.00;99.90;;;;;;5095887;27;20039;-78
2021/12/31 06:41:10;;;;;;;4.17;3.03;;;13.10;99.90;;;;;;5081339;28;20262;-76
2021/12/31 06:43:35;;;;;;;5.03;2.90;;;13.00;99.90;;;;;;5091814;27;20051;-80
2021/12/31 06:46:01;;;;;;;3.87;2.30;;;13.00;99.90;;;;;;5102259;27;20581;-83
2021/12/31 06:48:27;;;;;;;5.50;2.93;;;13.00;99.90;;;;;;5061334;28;20039;-86
2021/12/31 06:50:53;;;;;;;3.97;2.47;;;13.00;99.90;;;;;;5051075;27;20402;-92
2021/12/31 06:53:19;;;;;;;4.10;2.67;;;13.00;99.90;;;;;;5078164;27;20091;-89
2021/12/31 06:55:44;;;;;;;5.63;2.87;;;13.00;99.90;;;;;;5073866;27;20068;-85
2021/12/31 06:58:10;;;;;;;5.10;2.53;;;13.00;99.90;;;;;;5082824;28;20044;-83
2021/12/31 07:00:36;;;;;;;3.97;2.23;;;13.00;99.90;;;;;;5065825;28;20043;-84
2021/12/31 07:03:10;;;;;;;4.97;2.57;;;13.00;99.90;;;;;;5096672;27;20035;-82
2021/12/31 07:05:36;;;;;;;3.97;3.00;;;12.90;99.90;;;;;;5094155;27;20074;-88
2021/12/31 07:08:03;;;;;;;6.37;2.70;;;12.90;99.90;;;;;;5085884;27;20050;-91
2021/12/31 07:10:28;;;;;;;4.30;2.77;;;13.00;99.90;;;;;;5082655;27;20036;-89
2021/12/31 07:13:05;;;;;;;6.27;3.03;;;12.90;99.90;;;;;;5081410;28;20066;-88
2021/12/31 07:15:31;;;;;;;6.00;3.10;;;12.90;99.90;;;;;;5083825;27;20853;-89
2021/12/31 07:17:57;;;;;;;7.80;3.00;;;12.80;99.90;;;;;;5120277;27;20071;-89
2021/12/31 07:20:23;;;;;;;6.57;3.00;;;12.90;99.90;;;;;;5088394;27;20047;-87
2021/12/31 07:22:49;;;;;;;6.47;3.03;;;12.80;99.90;;;;;;5092170;27;20106;-88
2021/12/31 07:25:15;;;;;;;8.97;3.37;;;12.80;99.90;;;;;;5102391;27;20099;-89
2021/12/31 07:27:41;;;;;;;7.37;3.13;;;12.80;99.90;;;;;;5100523;27;20047;-90
2021/12/31 07:30:08;;;;;;;6.53;3.37;;;12.80;99.90;;;;;;5075252;27;20085;-86
2021/12/31 07:32:37;;;;;;;5.47;3.53;;;12.70;99.90;;;;;;5081135;27;20051;-88
2021/12/31 07:35:04;;;;;;;4.93;3.20;;;12.70;99.90;;;;;;5101472;27;20049;-87
2021/12/31 07:37:31;;;;;;;4.43;2.90;;;12.70;99.90;;;;;;5098478;27;20055;-94
2021/12/31 07:40:02;;;;;;;5.17;2.57;;;12.70;99.90;;;;;;5085446;27;20102;-89
2021/12/31 07:42:28;;;;;;;8.25;3.03;;;12.60;99.90;;;;;;5086010;27;20043;-89
2021/12/31 07:44:54;;;;;;;7.30;2.90;;;12.60;99.90;;;;;;5067014;27;20117;-88
2021/12/31 07:47:19;;;;;;;4.73;2.67;;;12.70;99.90;;;;;;5118339;27;20072;-88
2021/12/31 07:49:45;;;;;;;4.33;2.83;;;12.60;99.90;;;;;;5082837;27;20046;-91
2021/12/31 07:52:11;;;;;;;3.97;2.80;;;12.60;99.90;;;;;;5083539;27;20047;-89
2021/12/31 07:54:37;;;;;;;3.97;2.70;;;12.60;99.90;;;;;;5095166;27;20047;-89
2021/12/31 07:57:03;;;;;;;5.03;2.80;;;12.60;99.90;;;;;;5101449;27;20068;-87
2021/12/31 07:59:29;;;;;;;4.60;3.03;;;12.60;99.90;;;;;;5067101;27;20039;-86
2021/12/31 08:01:55;;;;;;;5.80;3.23;;;12.60;99.90;;;;;;5083798;28;20098;-87
2021/12/31 08:04:20;;;;;;;5.53;2.90;;;12.60;99.90;;;;;;5072177;27;20047;-87
2021/12/31 08:06:46;;;;;;;4.93;2.93;;;12.60;99.90;;;;;;5100525;27;20494;-87
2021/12/31 08:09:12;;;;;;;5.07;2.93;;;12.50;99.90;;;;;;5094530;27;20035;-86
2021/12/31 08:11:39;;;;;;;6.53;2.87;;;12.60;99.90;;;;;;5099114;27;20038;-87
2021/12/31 08:14:05;;;;;;;7.43;2.73;;;12.60;99.90;;;;;;5061173;28;20035;-89
2021/12/31 08:16:31;;;;;;;5.00;2.60;;;12.50;99.90;;;;;;5059371;27;20106;-85
2021/12/31 08:18:57;;;;;;;4.43;3.03;;;12.60;99.90;;;;;;5068726;28;20112;-84
2021/12/31 08:21:22;;;;;;;5.13;3.00;;;12.60;99.90;;;;;;5067089;27;20046;-87
2021/12/31 08:23:48;;;;;;;6.03;3.20;;;12.60;99.90;;;;;;5098289;27;20137;-84
2021/12/31 08:26:14;;;;;;;6.70;2.87;;;12.70;99.90;;;;;;5113259;28;20114;-86
2021/12/31 08:28:40;;;;;;;5.83;2.90;;;12.70;99.90;;;;;;5106844;27;20420;-84
2021/12/31 08:31:06;;;;;;;4.17;2.87;;;12.70;99.90;;;;;;5080981;28;20073;-83
2021/12/31 08:33:32;;;;;;;5.30;3.00;;;12.70;99.90;;;;;;5089552;27;20070;-83
2021/12/31 08:35:58;;;;;;;4.73;2.53;;;12.80;99.90;;;;;;5072747;27;20051;-85
2021/12/31 08:38:24;;;;;;;4.70;2.80;;;12.80;99.90;;;;;;5092143;28;20052;-83
2021/12/31 08:40:51;;;;;;;4.17;3.00;;;12.80;99.90;;;;;;5095330;27;20057;-83
2021/12/31 08:43:17;;;;;;;4.50;2.40;;;12.80;99.90;;;;;;5099245;28;20047;-83
2021/12/31 08:45:43;;;;;;;4.27;2.47;;;12.80;99.90;;;;;;5051237;28;20073;-83
2021/12/31 08:48:09;;;;;;;4.97;2.70;;;12.80;99.90;;;;;;5070819;28;20048;-84
2021/12/31 08:50:35;;;;;;;3.33;2.63;;;12.90;99.90;;;;;;5097657;27;20047;-83
2021/12/31 08:53:02;;;;;;;5.47;2.97;;;12.80;99.90;;;;;;5052521;28;20050;-84
2021/12/31 08:55:28;;;;;;;4.17;2.50;;;12.90;99.90;;;;;;5068001;27;20044;-83
2021/12/31 08:57:55;;;;;;;6.70;2.20;;;12.90;99.90;;;;;;5097139;27;20092;-83
2021/12/31 09:00:21;;;;;;;5.00;2.63;;;12.90;99.90;;;;;;5084513;27;20478;-83
2021/12/31 09:02:49;;;;;;;6.43;2.70;;;12.90;99.90;;;;;;5078476;27;20093;-83
2021/12/31 09:05:16;;;;;;;4.53;2.70;;;12.90;99.90;;;;;;5080851;28;20074;-84
2021/12/31 09:07:42;;;;;;;5.10;2.80;;;13.00;99.90;;;;;;5084020;27;20047;-83
2021/12/31 09:10:09;;;;;;;4.10;2.83;;;13.00;99.90;;;;;;5089560;27;20054;-83
2021/12/31 09:12:36;;;;;;;5.73;2.60;;;13.00;99.90;;;;;;5094381;28;20044;-84
2021/12/31 09:15:02;;;;;;;4.80;2.80;;;13.00;99.90;;;;;;5083711;28;20130;-84
2021/12/31 09:17:27;;;;;;;3.80;2.23;;;13.00;99.90;;;;;;5091669;28;20074;-83
2021/12/31 09:19:53;;;;;;;5.97;2.87;;;13.00;99.90;;;;;;5093634;28;20039;-84
2021/12/31 09:22:19;;;;;;;4.03;2.60;;;13.00;99.90;;;;;;5089980;28;20091;-83
2021/12/31 09:24:45;;;;;;;5.80;2.80;;;13.00;99.90;;;;;;5062253;28;20042;-84
2021/12/31 09:27:11;;;;;;;4.73;2.80;;;13.00;99.90;;;;;;5086646;28;20137;-83
2021/12/31 09:29:37;;;;;;;5.47;2.83;;;13.00;99.90;;;;;;5093557;28;20054;-83
2021/12/31 09:32:03;;;;;;;4.83;2.67;;;13.00;99.90;;;;;;5082821;28;20058;-83
2021/12/31 09:34:29;;;;;;;3.60;2.90;;;13.00;99.90;;;;;;5076573;28;20498;-83
2021/12/31 09:36:54;;;;;;;4.63;2.80;;;13.00;99.90;;;;;;5069110;28;20066;-78
2021/12/31 09:39:20;;;;;;;4.40;2.80;;;13.00;99.90;;;;;;5092288;28;20047;-78
2021/12/31 09:41:46;;;;;;;5.97;2.93;;;13.00;99.90;;;;;;5070757;28;20106;-78
2021/12/31 09:44:15;;;;;;;4.90;2.67;;;13.00;99.90;;;;;;5080342;28;20040;-78
2021/12/31 09:46:42;;;;;;;6.10;2.80;;;13.10;99.90;;;;;;5068553;28;20171;-77
2021/12/31 09:49:08;;;;;;;5.87;2.70;;;13.10;99.90;;;;;;5112915;28;20486;-78
2021/12/31 09:51:34;;;;;;;4.70;2.87;;;13.10;99.90;;;;;;5079519;28;20047;-78
2021/12/31 09:54:01;;;;;;;6.30;3.10;;;13.20;99.90;;;;;;5109847;28;20039;-78
2021/12/31 09:56:27;;;;;;;6.53;2.80;;;13.20;99.90;;;;;;5093755;28;20092;-79
2021/12/31 09:58:53;;;;;;;3.90;2.40;;;13.20;99.90;;;;;;5066053;28;20496;-79
2021/12/31 10:01:19;;;;;;;3.37;2.60;;;13.20;99.90;;;;;;5090218;28;20092;-80
2021/12/31 10:03:57;;;;;;;5.63;2.97;;;13.20;99.90;;;;;;5083443;27;20043;-84
2021/12/31 10:06:26;;;;;;;6.63;2.67;;;13.20;99.90;;;;;;5092785;27;20043;-84
2021/12/31 10:08:57;;;;;;;8.70;3.37;;;13.20;99.90;;;;;;5093536;27;20044;-83
2021/12/31 10:11:26;;;;;;;5.87;3.20;;;13.10;99.90;;;;;;5115331;27;20062;-84
2021/12/31 10:13:52;;;;;;;3.47;2.50;;;13.10;99.90;;;;;;5087785;27;20438;-83
2021/12/31 10:16:39;;;;;;;5.03;2.90;;;13.00;99.90;;;;;;5088177;27;20047;-83
2021/12/31 10:19:10;;;;;;;5.80;3.17;;;13.00;99.90;;;;;;5102736;27;20047;-85
2021/12/31 10:21:51;;;;;;;7.88;3.03;;;13.00;99.90;;;;;;5103823;27;20051;-85
2021/12/31 10:24:36;;;;;;;4.03;3.00;;;13.00;99.90;;;;;;5099641;27;20051;-84
2021/12/31 10:27:14;;;;;;;6.77;3.17;;;13.10;99.90;;;;;;5115483;27;20047;-90
2021/12/31 10:29:54;;;;;;;5.00;2.40;;;13.10;99.90;;;;;;5093874;27;20192;-87
2021/12/31 10:32:21;;;;;;;6.63;2.80;;;13.10;99.90;;;;;;5098900;27;20083;-86
2021/12/31 10:34:46;;;;;;;8.77;3.53;;;13.10;99.90;;;;;;5109411;27;20583;-87
2021/12/31 10:37:25;;;;;;;5.10;2.70;;;13.10;99.90;;;;;;5065091;28;20051;-88
2021/12/31 10:39:59;;;;;;;4.73;2.70;;;13.10;99.90;;;;;;5087295;27;20060;-87
2021/12/31 10:42:31;;;;;;;5.00;3.03;;;13.10;99.90;;;;;;5091459;27;20047;-85
2021/12/31 10:45:01;;;;;;;5.30;3.30;;;13.10;99.90;;;;;;5075063;27;20051;-86
2021/12/31 10:47:33;;;;;;;4.70;2.83;;;13.10;99.90;;;;;;5072200;28;20047;-87
2021/12/31 10:50:12;;;;;;;5.63;2.80;;;13.10;99.90;;;;;;5098514;27;20134;-89
2021/12/31 10:52:46;;;;;;;5.90;3.10;;;13.00;99.90;;;;;;5087797;27;20072;-87
2021/12/31 10:55:18;;;;;;;3.93;3.30;;;13.00;99.90;;;;;;5098361;27;20051;-86
2021/12/31 10:57:46;;;;;;;6.53;3.20;;;13.00;99.90;;;;;;5089646;28;20081;-83
2021/12/31 11:00:14;;;;;;;5.10;3.43;;;13.10;99.90;;;;;;5083390;27;20532;-87
2021/12/31 11:02:40;;;;;;;5.70;3.43;;;13.00;99.90;;;;;;5069318;28;20036;-87
2021/12/31 11:05:07;;;;;;;7.83;3.33;;;13.00;99.90;;;;;;5079119;27;20057;-87
2021/12/31 11:07:34;;;;;;;7.07;3.80;;;13.00;99.90;;;;;;5082822;27;20572;-85
2021/12/31 11:10:01;;;;;;;6.63;3.40;;;13.00;99.90;;;;;;5100699;27;20071;-86
2021/12/31 11:12:27;;;;;;;7.30;3.30;;;13.00;99.90;;;;;;5102101;27;20035;-87
2021/12/31 11:14:54;;;;;;;7.70;3.00;;;13.00;99.90;;;;;;5099072;27;20051;-87
2021/12/31 11:17:24;;;;;;;5.30;3.67;;;13.00;99.90;;;;;;5101229;27;20081;-88
2021/12/31 11:19:51;;;;;;;8.67;3.80;;;13.00;99.90;;;;;;5078132;27;20051;-86
2021/12/31 11:22:22;;;;;;;7.33;3.87;;;13.00;99.90;;;;;;5100024;27;20046;-87
2021/12/31 11:24:48;;;;;;;5.93;3.90;;;12.90;99.90;;;;;;5097097;27;20035;-86
2021/12/31 11:27:25;;;;;;;5.80;4.00;;;12.80;99.90;;;;;;5097975;27;20066;-87
2021/12/31 11:29:52;;;;;;;9.77;4.20;;;12.80;99.90;;;;;;5094724;28;20620;-87
2021/12/31 11:32:18;;;;;;;7.73;4.07;;;12.70;99.90;;;;;;5078639;28;20052;-88
2021/12/31 11:34:44;;;;;;;6.07;3.93;;;12.70;99.90;;;;;;5070611;28;20043;-84
2021/12/31 11:37:45;;;;;;;5.73;4.03;;;12.70;99.90;;;;;;5067381;28;20048;-85
2021/12/31 11:40:38;;;;;;;7.07;4.10;;;12.70;99.90;;;;;;5081933;28;20047;-84
2021/12/31 11:43:14;;;;;;;8.90;4.73;;;12.60;99.90;;;;;;5082166;28;20051;-84
2021/12/31 11:45:40;;;;;;;10.47;4.87;;;12.60;99.90;;;;;;5094203;28;20043;-84
2021/12/31 11:48:43;;;;;;;7.23;4.40;;;12.60;99.90;;;;;;5109812;28;20216;-84
2021/12/31 11:51:13;;;;;;;6.27;4.57;;;12.60;99.90;;;;;;5094293;28;20498;-84
2021/12/31 11:53:58;;;;;;;10.13;5.03;;;12.50;99.90;;;;;;5085734;28;20531;-84
2021/12/31 11:56:35;;;;;;;8.60;4.63;;;12.50;99.90;;;;;;5087098;28;20047;-84
2021/12/31 11:59:07;;;;;;;11.47;5.33;;;12.50;99.90;;;;;;5071588;28;20040;-84
2021/12/31 12:01:36;;;;;;;9.48;4.47;;;12.50;99.90;;;;;;5075043;28;20040;-84
2021/12/31 12:04:22;;;;;;;7.17;4.60;;;12.50;99.90;;;;;;5094488;28;20056;-84
2021/12/31 12:06:57;;;;;;;5.67;4.53;;;12.40;99.90;;;;;;5075036;28;20070;-85
2021/12/31 12:09:35;;;;;;;6.13;4.40;;;12.40;99.90;;;;;;5092423;28;20051;-84
2021/12/31 12:12:10;;;;;;;7.83;5.40;;;12.40;99.90;;;;;;5074324;28;20099;-82
2021/12/31 12:14:43;;;;;;;7.80;4.83;;;12.40;99.90;;;;;;5072812;28;20362;-87
2021/12/31 12:17:11;;;;;;;8.90;5.60;;;12.40;99.90;;;;;;5080865;28;20035;-84
2021/12/31 12:19:52;;;;;;;15.83;5.60;;;12.40;99.90;;;;;;5075021;28;20114;-84
2021/12/31 12:22:49;;;;;;;12.43;6.13;;;12.40;99.90;;;;;;5107077;28;20043;-84
2021/12/31 12:25:21;;;;;;;7.40;5.57;;;12.30;99.90;;;;;;5108458;28;20131;-84
2021/12/31 12:27:58;;;;;;;12.95;5.90;;;12.30;99.90;;;;;;5093586;28;20070;-83
2021/12/31 12:30:24;;;;;;;8.63;5.77;;;12.20;99.90;;;;;;5103116;28;20063;-85
2021/12/31 12:33:15;;;;;;;9.17;5.97;;;12.20;99.90;;;;;;5091532;28;20074;-83
2021/12/31 12:35:46;;;;;;;10.50;6.07;;;12.20;99.90;;;;;;5105785;28;20071;-83
2021/12/31 12:38:27;;;;;;;13.80;6.72;;;12.10;99.90;;;;;;5090529;28;20048;-84
2021/12/31 12:41:02;;;;;;;12.37;7.10;;;12.10;99.90;;;;;;5086923;28;20036;-85
2021/12/31 12:43:32;;;;;;;10.33;6.40;;;12.10;99.90;;;;;;5088953;28;20122;-84
2021/12/31 12:46:04;;;;;;;13.53;6.37;;;12.10;99.90;;;;;;5083191;28;20099;-85
2021/12/31 12:48:36;;;;;;;11.43;6.83;;;12.10;99.90;;;;;;5076215;28;20042;-82
2021/12/31 12:51:07;;;;;;;11.85;7.03;;;12.10;99.90;;;;;;5093258;28;20043;-81